createdAt,value
2023-05-21T00:03:47.190Z,29.70
2023-05-21T00:08:50.687Z,29.70
2023-05-21T00:13:55.171Z,29.70
2023-05-21T00:18:58.385Z,29.80
2023-05-21T00:24:01.586Z,29.70
2023-05-21T00:29:06.222Z,29.70
2023-05-21T00:34:09.347Z,29.80
2023-05-21T00:39:12.693Z,29.70
2023-05-21T00:44:19.358Z,29.70
2023-05-21T00:49:24.611Z,29.80
2023-05-21T00:54:28.052Z,29.70
2023-05-21T00:59:33.472Z,29.70
2023-05-21T01:04:37.535Z,29.70
2023-05-21T01:09:45.767Z,29.60
2023-05-21T01:14:51.041Z,29.60
2023-05-21T01:19:54.772Z,29.70
2023-05-21T01:25:02.920Z,29.60
2023-05-21T01:30:08.440Z,29.60
2023-05-21T01:35:14.518Z,29.60
2023-05-21T01:40:25.821Z,29.40
2023-05-21T01:45:32.330Z,29.60
2023-05-21T01:50:36.569Z,29.50
2023-05-21T01:55:41.886Z,29.40
2023-05-21T02:00:45.434Z,29.50
2023-05-21T02:05:48.586Z,29.50
2023-05-21T02:10:53.170Z,29.40
2023-05-21T02:15:56.580Z,29.30
2023-05-21T02:20:59.691Z,29.40
2023-05-21T02:26:04.224Z,29.50
2023-05-21T02:31:07.383Z,29.70
2023-05-21T02:36:13.269Z,29.60
2023-05-21T02:41:17.957Z,29.50
2023-05-21T02:46:21.139Z,29.70
2023-05-21T02:51:24.295Z,29.70
2023-05-21T02:56:28.778Z,29.70
2023-05-21T03:01:32.030Z,29.90
2023-05-21T03:06:35.237Z,29.70
2023-05-21T03:11:39.797Z,29.70
2023-05-21T03:16:43.848Z,29.90
2023-05-21T03:21:49.055Z,29.70
2023-05-21T03:26:54.609Z,29.80
2023-05-21T03:31:57.913Z,29.90
2023-05-21T03:37:01.252Z,30.00
2023-05-21T03:42:06.083Z,30.00
2023-05-21T03:47:09.545Z,30.10
2023-05-21T03:52:12.671Z,30.10
2023-05-21T03:57:17.229Z,30.20
2023-05-21T04:02:20.445Z,30.40
2023-05-21T04:07:23.938Z,30.30
2023-05-21T04:12:28.451Z,30.40
2023-05-21T04:17:31.704Z,30.60
2023-05-21T04:22:35.350Z,30.40
2023-05-21T04:27:40.158Z,30.60
2023-05-21T04:32:47.626Z,30.90
2023-05-21T04:37:52.130Z,30.90
2023-05-21T04:42:56.818Z,30.90
2023-05-21T04:48:01.076Z,31.40
2023-05-21T04:53:04.515Z,31.20
2023-05-21T04:58:11.002Z,32.10
2023-05-21T05:03:14.809Z,31.80
2023-05-21T05:08:18.751Z,31.80
2023-05-21T05:13:23.903Z,31.80
2023-05-21T05:18:27.267Z,32.30
2023-05-21T05:23:30.674Z,32.20
2023-05-21T05:28:35.377Z,32.30
2023-05-21T05:33:38.671Z,32.70
2023-05-21T05:38:41.879Z,32.50
2023-05-21T05:43:46.981Z,32.50
2023-05-21T05:48:50.226Z,33.10
2023-05-21T05:53:53.385Z,32.80
2023-05-21T05:58:58.336Z,33.00
2023-05-21T06:04:01.601Z,33.30
2023-05-21T06:09:04.864Z,33.10
2023-05-21T06:14:09.435Z,33.20
2023-05-21T06:19:12.693Z,33.60
2023-05-21T06:24:15.968Z,33.30
2023-05-21T06:29:20.607Z,33.40
2023-05-21T06:34:23.861Z,33.60
2023-05-21T06:39:27.318Z,33.40
2023-05-21T06:44:31.850Z,33.20
2023-05-21T06:49:35.659Z,33.30
2023-05-21T06:54:38.879Z,33.10
2023-05-21T06:59:43.421Z,33.10
2023-05-21T07:04:46.778Z,33.20
2023-05-21T07:09:50.035Z,32.90
2023-05-21T07:14:54.799Z,32.80
2023-05-21T07:19:58.210Z,32.70
2023-05-21T07:25:01.517Z,32.70
2023-05-21T07:30:07.087Z,32.80
2023-05-21T07:35:10.935Z,32.70
2023-05-21T07:40:15.221Z,32.70
2023-05-21T07:45:19.781Z,32.90
2023-05-21T07:50:23.019Z,32.70
2023-05-21T07:55:26.169Z,32.50
2023-05-21T08:00:30.934Z,32.30
2023-05-21T08:05:34.255Z,32.00
2023-05-21T08:10:38.262Z,31.90
2023-05-21T08:15:43.059Z,32.20
2023-05-21T08:20:46.348Z,31.60
2023-05-21T08:25:49.687Z,31.50
2023-05-21T08:30:54.297Z,31.50
2023-05-21T08:35:57.505Z,31.10
2023-05-21T08:41:01.330Z,31.10
2023-05-21T08:46:09.832Z,31.10
2023-05-21T08:51:13.350Z,30.20
2023-05-21T08:56:18.357Z,30.40
2023-05-21T09:01:25.746Z,30.10
2023-05-21T09:06:33.972Z,30.20
2023-05-21T09:11:37.173Z,30.30
2023-05-21T09:16:42.045Z,29.60
2023-05-21T09:21:45.319Z,28.80
2023-05-21T09:26:48.528Z,29.00
2023-05-21T09:31:54.987Z,29.30
2023-05-21T09:36:58.803Z,28.90
2023-05-21T09:42:02.463Z,29.00
2023-05-21T09:47:07.372Z,29.00
2023-05-21T09:52:10.725Z,28.30
2023-05-21T09:57:15.885Z,28.50
2023-05-21T10:02:23.279Z,27.50
2023-05-21T10:07:28.096Z,27.60
2023-05-21T10:12:33.106Z,27.90
2023-05-21T10:17:38.622Z,27.70
2023-05-21T10:22:42.529Z,27.50
2023-05-21T10:27:46.129Z,27.50
2023-05-21T10:32:51.586Z,27.50
2023-05-21T10:37:56.914Z,26.90
2023-05-21T10:43:26.918Z,27.10
2023-05-21T10:48:49.089Z,26.50
2023-05-21T10:54:16.632Z,26.40
2023-05-21T10:59:31.863Z,26.30
2023-05-21T11:04:40.094Z,26.30
2023-05-21T11:09:43.484Z,26.20
2023-05-21T11:14:58.409Z,26.00
2023-05-21T11:20:07.325Z,25.70
2023-05-21T11:25:12.595Z,25.40
2023-05-21T11:30:18.513Z,25.80
2023-05-21T11:35:24.156Z,25.10
2023-05-21T11:40:30.219Z,24.80
2023-05-21T11:45:34.305Z,24.80
2023-05-21T11:50:39.457Z,24.60
2023-05-21T11:55:47.384Z,24.40
2023-05-21T12:00:52.569Z,24.50
2023-05-21T12:06:05.590Z,24.00
2023-05-21T12:11:09.064Z,24.30
2023-05-21T12:16:13.151Z,24.30
2023-05-21T12:21:18.428Z,24.40
2023-05-21T12:26:21.875Z,23.70
2023-05-21T12:31:27.467Z,23.80
2023-05-21T12:36:34.198Z,23.50
2023-05-21T12:41:37.447Z,22.90
2023-05-21T12:46:40.854Z,23.40
2023-05-21T12:51:46.762Z,22.80
2023-05-21T12:56:49.990Z,21.30
2023-05-21T13:01:54.505Z,22.90
2023-05-21T13:06:59.121Z,22.50
2023-05-21T13:12:02.320Z,22.70
2023-05-21T13:17:05.683Z,22.60
2023-05-21T13:22:10.566Z,22.40
2023-05-21T13:27:13.695Z,22.10
2023-05-21T13:32:17.011Z,22.40
2023-05-21T13:37:21.720Z,22.00
2023-05-21T13:42:25.152Z,20.60
2023-05-21T13:47:29.389Z,21.40
2023-05-21T13:52:34.043Z,21.10
2023-05-21T13:57:37.383Z,20.70
2023-05-21T14:02:41.954Z,21.60
2023-05-21T14:07:48.320Z,21.70
2023-05-21T14:12:51.608Z,20.80
2023-05-21T14:17:54.872Z,20.90
2023-05-21T14:22:59.503Z,20.60
2023-05-21T14:28:02.754Z,20.10
2023-05-21T14:33:06.456Z,20.90
2023-05-21T14:38:11.224Z,20.90
2023-05-21T14:43:15.043Z,20.90
2023-05-21T14:48:23.158Z,20.90
2023-05-21T14:53:28.152Z,20.90
2023-05-21T14:58:31.414Z,20.70
2023-05-21T15:03:34.656Z,20.80
2023-05-21T15:08:39.190Z,20.80
2023-05-21T15:13:42.469Z,20.80
2023-05-21T15:18:45.934Z,20.90
2023-05-21T15:23:50.514Z,20.90
2023-05-21T15:28:53.899Z,20.90
2023-05-21T15:33:58.452Z,20.90
2023-05-21T15:39:06.063Z,20.90
2023-05-21T15:44:09.466Z,20.90
2023-05-21T15:49:12.604Z,20.90
2023-05-21T15:54:17.247Z,20.90
2023-05-21T15:59:20.599Z,20.90
2023-05-21T16:04:23.783Z,20.90
2023-05-21T16:09:28.358Z,20.90
2023-05-21T16:14:31.618Z,20.90
2023-05-21T16:19:34.984Z,20.90
2023-05-21T16:24:39.847Z,20.90
2023-05-21T16:29:43.239Z,20.90
2023-05-21T16:34:46.485Z,20.90
2023-05-21T16:39:51.068Z,20.90
2023-05-21T16:44:54.297Z,20.80
2023-05-21T16:49:58.564Z,20.90
2023-05-21T16:55:03.806Z,20.90
2023-05-21T17:00:08.176Z,20.60
2023-05-21T17:05:11.346Z,20.80
2023-05-21T17:10:16.300Z,20.80
2023-05-21T17:15:19.470Z,20.70
2023-05-21T17:20:22.628Z,20.70
2023-05-21T17:25:27.242Z,20.60
2023-05-21T17:30:30.567Z,20.60
2023-05-21T17:35:33.834Z,20.60
2023-05-21T17:40:38.472Z,20.60
2023-05-21T17:45:41.593Z,20.60
2023-05-21T17:50:47.057Z,20.50
2023-05-21T17:55:51.685Z,20.80
2023-05-21T18:00:54.895Z,20.90
2023-05-21T18:05:58.158Z,21.00
2023-05-21T18:11:02.839Z,21.10
2023-05-21T18:16:06.626Z,21.10
2023-05-21T18:21:10.024Z,21.10
2023-05-21T18:26:14.612Z,21.30
2023-05-21T18:31:18.234Z,21.30
2023-05-21T18:36:21.559Z,21.30
2023-05-21T18:41:26.607Z,21.40
2023-05-21T18:46:30.333Z,21.50
2023-05-21T18:51:33.843Z,21.60
2023-05-21T18:56:39.133Z,21.60
2023-05-21T19:01:42.443Z,21.70
2023-05-21T19:06:45.780Z,21.80
2023-05-21T19:11:50.942Z,21.70
2023-05-21T19:16:54.154Z,21.80
2023-05-21T19:21:57.631Z,21.90
2023-05-21T19:27:02.275Z,22.00
2023-05-21T19:32:05.710Z,22.20
2023-05-21T19:37:09.132Z,22.10
2023-05-21T19:42:13.676Z,22.20
2023-05-21T19:47:16.972Z,22.50
2023-05-21T19:52:20.402Z,22.50
2023-05-21T19:57:24.959Z,22.50
2023-05-21T20:02:28.766Z,22.60
2023-05-21T20:07:31.978Z,22.60
2023-05-21T20:12:36.870Z,22.70
2023-05-21T20:17:42.930Z,22.70
2023-05-21T20:22:47.029Z,22.70
2023-05-21T20:27:51.786Z,22.80
2023-05-21T20:32:55.016Z,22.90
2023-05-21T20:37:58.255Z,22.90
2023-05-21T20:43:02.877Z,23.00
2023-05-21T20:48:06.746Z,23.20
2023-05-21T20:53:10.279Z,23.20
2023-05-21T20:58:14.854Z,23.40
2023-05-21T21:03:18.819Z,23.50
2023-05-21T21:08:22.290Z,23.50
2023-05-21T21:13:27.233Z,23.60
2023-05-21T21:18:30.635Z,23.80
2023-05-21T21:23:34.000Z,23.90
2023-05-21T21:28:39.047Z,23.90
2023-05-21T21:33:42.201Z,24.10
2023-05-21T21:38:45.491Z,24.10
2023-05-21T21:43:50.169Z,24.20
2023-05-21T21:48:53.377Z,24.40
2023-05-21T21:53:56.513Z,24.40
2023-05-21T21:59:01.110Z,24.40
2023-05-21T22:04:04.272Z,24.70
2023-05-21T22:09:07.976Z,24.50
2023-05-21T22:14:12.858Z,24.70
2023-05-21T22:19:17.916Z,24.90
2023-05-21T22:24:32.044Z,25.00
2023-05-21T22:29:37.570Z,25.00
2023-05-21T22:34:41.924Z,25.20
2023-05-21T22:39:45.087Z,24.90
2023-05-21T22:44:49.667Z,25.10
2023-05-21T22:49:53.260Z,25.60
2023-05-21T22:54:57.886Z,25.40
2023-05-21T23:00:02.431Z,25.50
2023-05-21T23:05:06.479Z,25.80
2023-05-21T23:10:10.493Z,25.70
2023-05-21T23:15:15.084Z,25.70
2023-05-21T23:20:18.882Z,26.10
2023-05-21T23:25:22.067Z,25.90
2023-05-21T23:30:26.557Z,26.00
2023-05-21T23:35:29.817Z,26.40
2023-05-21T23:40:32.939Z,26.10
2023-05-21T23:45:37.544Z,26.20
2023-05-21T23:50:40.890Z,26.50
2023-05-21T23:55:45.504Z,26.30
